Brentwood, NH

1:37 AM EST on February 14, 2016 (GMT -0500)
HADS | | Change Station
CLOSE
Current Station
Personal Weather Station
Location: Exeter, NH
Elevation: 113 ft
Nearby Weather Stations
Active Advisory: Wind Chill Warning Active Notice: Public Information Statement

Elev 113 ft 42.98 °N, 71.04 °W | Updated 2 hours ago

Partly Cloudy
Partly Cloudy
-9.0 °F
Feels Like -9.0 °F
N
0.0
Wind Variable Wind from North
Gusts 0.0 mph

Today
High -- | Low -- °F
--% Chance of Precip.
Yesterday
High -- | Low -- °F
Precip. -- in
Pressure 30.15 in
Visibility 10.0 miles
Clouds Few 4000 ft
Dew Point Not available.
Humidity Not available.
Rainfall in
Snow Depth Not available.
6:43 AM 5:13 PM
Waxing Crescent, 38% visible
METAR KPSM 140558Z 29016G23KT 10SM FEW040 M24/M33 A3013 RMK AO2A PK WND 28028/14 SLP208 4/007 T12411328 11164 21241 50006
Pressure 30.15 in
Visibility 10.0 miles
Clouds Few 4000 ft
Dew Point Not available.
Humidity Not available.
Rainfall in
Snow Depth Not available.
6:43 AM 5:13 PM
Waxing Crescent, 38% visible
METAR KPSM 140558Z 29016G23KT 10SM FEW040 M24/M33 A3013 RMK AO2A PK WND 28028/14 SLP208 4/007 T12411328 11164 21241 50006

10-Day Weather Forecast

Almanac

Astronomy

Feb. 14, 2016 Rise Set
Actual Time
Civil Twilight
Nautical Twilight
Astronomical Twilight
Moon
Length of Visible Light
Length of Day
Tomorrow will be .
, % of the Moon is Illuminated

Today's Extremes

State Highs State Lows

Community

WunderPhotos

Upload Photos

1,892,757 photos uploaded!

WunderBlog® & News

Nearby

Air Quality

  Air Quality AQ Index Pollutant
Not available.

Snow Depth

Station Depth Elevation

Earthquake Activity

City Distance Mag. Time & Date
Minimum magnitude displayed is 2.5.

Coastal Water Temperatures

Place Temperature

Stations

Nearby Weather Stations

Station Location Temp. Windchill Dew Point Humidity Wind Precip. Elev Updated Type
                   

Watches & Warnings

Wind Chill Warning
Issued: 9:10 PM EST Feb. 13, 2016 – National Weather Service

... Wind chill warning remains in effect until 10 am EST Sunday...

* hazard types... dangerous wind chill readings.

* Wind chill... as low as 39 below due to temperatures 5 below to
16 below zero... and winds northwest 10 to 20 mph with gusts up
to 30 mph.

* Timing... tonight and Sunday morning.

* Impacts... frostbite and hypothermia if unprotected from the
cold.

* Winds... northwest 10 to 20 mph with gusts up to 30 mph.

* Temperatures... 5 below to 16 below zero.

Precautionary/preparedness actions...

A wind chill warning means the combination of very cold air and
strong winds will create dangerously low wind chill values. This
will result in frost bite and lead to hypothermia or death if
precautions are not taken.